sensor_id;sensor_type;location;lat;lon;timestamp;pressure;altitude;pressure_sealevel;temperature
79089;BMP280;68489;50.286;9.452;2023-11-21T00:01:57;96594.03;;;8.12
79089;BMP280;68489;50.286;9.452;2023-11-21T00:04:23;96590.19;;;8.13
79089;BMP280;68489;50.286;9.452;2023-11-21T00:06:48;96592.13;;;8.12
79089;BMP280;68489;50.286;9.452;2023-11-21T00:09:14;96593.16;;;8.15
79089;BMP280;68489;50.286;9.452;2023-11-21T00:11:43;96595.34;;;8.16
79089;BMP280;68489;50.286;9.452;2023-11-21T00:14:08;96597.56;;;8.18
79089;BMP280;68489;50.286;9.452;2023-11-21T00:16:34;96603.59;;;8.19
79089;BMP280;68489;50.286;9.452;2023-11-21T00:18:59;96603.19;;;8.20
79089;BMP280;68489;50.286;9.452;2023-11-21T00:21:25;96602.00;;;8.21
79089;BMP280;68489;50.286;9.452;2023-11-21T00:23:50;96593.63;;;8.23
79089;BMP280;68489;50.286;9.452;2023-11-21T00:26:15;96598.19;;;8.22
79089;BMP280;68489;50.286;9.452;2023-11-21T00:28:41;96601.88;;;8.25
79089;BMP280;68489;50.286;9.452;2023-11-21T00:31:06;96606.13;;;8.22
79089;BMP280;68489;50.286;9.452;2023-11-21T00:33:31;96614.81;;;8.23
79089;BMP280;68489;50.286;9.452;2023-11-21T00:35:57;96614.38;;;8.24
79089;BMP280;68489;50.286;9.452;2023-11-21T00:38:22;96607.16;;;8.25
79089;BMP280;68489;50.286;9.452;2023-11-21T00:40:47;96613.97;;;8.26
79089;BMP280;68489;50.286;9.452;2023-11-21T00:43:12;96610.84;;;8.27
79089;BMP280;68489;50.286;9.452;2023-11-21T00:45:38;96607.47;;;8.27
79089;BMP280;68489;50.286;9.452;2023-11-21T00:48:05;96609.41;;;8.26
79089;BMP280;68489;50.286;9.452;2023-11-21T00:50:30;96608.34;;;8.24
79089;BMP280;68489;50.286;9.452;2023-11-21T00:52:56;96618.53;;;8.25
79089;BMP280;68489;50.286;9.452;2023-11-21T00:55:21;96615.13;;;8.25
79089;BMP280;68489;50.286;9.452;2023-11-21T00:57:47;96616.28;;;8.24
79089;BMP280;68489;50.286;9.452;2023-11-21T01:00:13;96612.19;;;8.23
79089;BMP280;68489;50.286;9.452;2023-11-21T01:02:44;96613.66;;;8.24
79089;BMP280;68489;50.286;9.452;2023-11-21T01:05:10;96615.13;;;8.25
79089;BMP280;68489;50.286;9.452;2023-11-21T01:07:36;96611.00;;;8.24
79089;BMP280;68489;50.286;9.452;2023-11-21T01:10:02;96623.06;;;8.25
79089;BMP280;68489;50.286;9.452;2023-11-21T01:12:28;96615.13;;;8.25
79089;BMP280;68489;50.286;9.452;2023-11-21T01:14:53;96617.03;;;8.24
79089;BMP280;68489;50.286;9.452;2023-11-21T01:17:19;96615.13;;;8.25
79089;BMP280;68489;50.286;9.452;2023-11-21T01:19:44;96617.03;;;8.24
79089;BMP280;68489;50.286;9.452;2023-11-21T01:22:10;96617.34;;;8.26
79089;BMP280;68489;50.286;9.452;2023-11-21T01:24:37;96615.41;;;8.27
79089;BMP280;68489;50.286;9.452;2023-11-21T01:27:02;96616.91;;;8.28
79089;BMP280;68489;50.286;9.452;2023-11-21T01:29:29;96607.78;;;8.29
79089;BMP280;68489;50.286;9.452;2023-11-21T01:31:55;96612.63;;;8.30
79089;BMP280;68489;50.286;9.452;2023-11-21T01:34:20;96625.13;;;8.30
79089;BMP280;68489;50.286;9.452;2023-11-21T01:36:46;96622.81;;;8.32
79089;BMP280;68489;50.286;9.452;2023-11-21T01:39:12;96621.34;;;8.31
79089;BMP280;68489;50.286;9.452;2023-11-21T01:41:40;96622.81;;;8.32
79089;BMP280;68489;50.286;9.452;2023-11-21T01:44:05;96628.84;;;8.32
79089;BMP280;68489;50.286;9.452;2023-11-21T01:46:33;96625.44;;;8.32
79089;BMP280;68489;50.286;9.452;2023-11-21T01:48:58;96631.16;;;8.30
79089;BMP280;68489;50.286;9.452;2023-11-21T01:51:24;96628.84;;;8.32
79089;BMP280;68489;50.286;9.452;2023-11-21T01:53:49;96630.34;;;8.33
79089;BMP280;68489;50.286;9.452;2023-11-21T01:56:16;96626.19;;;8.32
79089;BMP280;68489;50.286;9.452;2023-11-21T01:58:41;96625.66;;;8.37
79089;BMP280;68489;50.286;9.452;2023-11-21T02:01:07;96630.50;;;8.39
79089;BMP280;68489;50.286;9.452;2023-11-21T02:03:33;96629.88;;;8.35
79089;BMP280;68489;50.286;9.452;2023-11-21T02:05:59;96629.47;;;8.36
79089;BMP280;68489;50.286;9.452;2023-11-21T02:08:24;96642.25;;;8.38
79089;BMP280;68489;50.286;9.452;2023-11-21T02:10:49;96646.84;;;8.37
79089;BMP280;68489;50.286;9.452;2023-11-21T02:13:15;96645.78;;;8.35
79089;BMP280;68489;50.286;9.452;2023-11-21T02:15:41;96646.22;;;8.33
79089;BMP280;68489;50.286;9.452;2023-11-21T02:18:07;96644.41;;;8.30
79089;BMP280;68489;50.286;9.452;2023-11-21T02:20:32;96639.56;;;8.29
79089;BMP280;68489;50.286;9.452;2023-11-21T02:23:00;96644.84;;;8.29
79089;BMP280;68489;50.286;9.452;2023-11-21T02:25:26;96642.19;;;8.29
79089;BMP280;68489;50.286;9.452;2023-11-21T02:27:53;96644.72;;;8.32
79089;BMP280;68489;50.286;9.452;2023-11-21T02:30:20;96645.16;;;8.31
79089;BMP280;68489;50.286;9.452;2023-11-21T02:32:47;96645.91;;;8.31
79089;BMP280;68489;50.286;9.452;2023-11-21T02:35:13;96637.22;;;8.31
79089;BMP280;68489;50.286;9.452;2023-11-21T02:37:38;96636.47;;;8.30
79089;BMP280;68489;50.286;9.452;2023-11-21T02:40:04;96639.13;;;8.30
79089;BMP280;68489;50.286;9.452;2023-11-21T02:42:31;96642.53;;;8.31
79089;BMP280;68489;50.286;9.452;2023-11-21T02:44:57;96642.53;;;8.31
79089;BMP280;68489;50.286;9.452;2023-11-21T02:47:22;96639.44;;;8.32
79089;BMP280;68489;50.286;9.452;2023-11-21T02:49:48;96639.31;;;8.36
79089;BMP280;68489;50.286;9.452;2023-11-21T02:52:14;96644.88;;;8.38
79089;BMP280;68489;50.286;9.452;2023-11-21T02:54:39;96641.53;;;8.37
79089;BMP280;68489;50.286;9.452;2023-11-21T02:57:04;96639.00;;;8.34
79089;BMP280;68489;50.286;9.452;2023-11-21T02:59:31;96634.88;;;8.33
79089;BMP280;68489;50.286;9.452;2023-11-21T03:01:56;96636.78;;;8.32
79089;BMP280;68489;50.286;9.452;2023-11-21T03:04:22;96646.31;;;8.30
79089;BMP280;68489;50.286;9.452;2023-11-21T03:06:47;96646.31;;;8.30
79089;BMP280;68489;50.286;9.452;2023-11-21T03:09:13;96641.19;;;8.26
79089;BMP280;68489;50.286;9.452;2023-11-21T03:11:38;96644.84;;;8.29
79089;BMP280;68489;50.286;9.452;2023-11-21T03:14:04;96633.53;;;8.28
79089;BMP280;68489;50.286;9.452;2023-11-21T03:16:31;96632.50;;;8.26
79089;BMP280;68489;50.286;9.452;2023-11-21T03:18:56;96629.84;;;8.26
79089;BMP280;68489;50.286;9.452;2023-11-21T03:21:22;96635.56;;;8.24
79089;BMP280;68489;50.286;9.452;2023-11-21T03:23:47;96634.84;;;8.24
79089;BMP280;68489;50.286;9.452;2023-11-21T03:26:13;96639.72;;;8.25
79089;BMP280;68489;50.286;9.452;2023-11-21T03:28:39;96633.66;;;8.25
79089;BMP280;68489;50.286;9.452;2023-11-21T03:31:04;96637.47;;;8.24
79089;BMP280;68489;50.286;9.452;2023-11-21T03:33:32;96644.53;;;8.27
79089;BMP280;68489;50.286;9.452;2023-11-21T03:35:57;96651.78;;;8.26
79089;BMP280;68489;50.286;9.452;2023-11-21T03:38:22;96651.03;;;8.26
79089;BMP280;68489;50.286;9.452;2023-11-21T03:40:48;96651.03;;;8.26
79089;BMP280;68489;50.286;9.452;2023-11-21T03:43:13;96645.75;;;8.26
79089;BMP280;68489;50.286;9.452;2023-11-21T03:45:39;96655.13;;;8.27
79089;BMP280;68489;50.286;9.452;2023-11-21T03:48:06;96651.78;;;8.26
79089;BMP280;68489;50.286;9.452;2023-11-21T03:50:32;96660.44;;;8.27
79089;BMP280;68489;50.286;9.452;2023-11-21T03:52:57;96661.63;;;8.26
79089;BMP280;68489;50.286;9.452;2023-11-21T03:55:22;96657.78;;;8.27
79089;BMP280;68489;50.286;9.452;2023-11-21T03:57:51;96662.53;;;8.32
79089;BMP280;68489;50.286;9.452;2023-11-21T04:00:17;96666.66;;;8.33
79089;BMP280;68489;50.286;9.452;2023-11-21T04:02:42;96661.34;;;8.33
79089;BMP280;68489;50.286;9.452;2023-11-21T04:05:07;96664.75;;;8.33
79089;BMP280;68489;50.286;9.452;2023-11-21T04:07:34;96667.50;;;8.30
79089;BMP280;68489;50.286;9.452;2023-11-21T04:09:59;96671.00;;;8.27
79089;BMP280;68489;50.286;9.452;2023-11-21T04:12:25;96673.66;;;8.27
79089;BMP280;68489;50.286;9.452;2023-11-21T04:14:50;96681.19;;;8.28
79089;BMP280;68489;50.286;9.452;2023-11-21T04:17:18;96687.38;;;8.25
79089;BMP280;68489;50.286;9.452;2023-11-21T04:19:44;96683.69;;;8.23
79089;BMP280;68489;50.286;9.452;2023-11-21T04:22:09;96692.03;;;8.21
79089;BMP280;68489;50.286;9.452;2023-11-21T04:24:35;96688.22;;;8.22
79089;BMP280;68489;50.286;9.452;2023-11-21T04:27:00;96688.22;;;8.22
79089;BMP280;68489;50.286;9.452;2023-11-21T04:29:25;96679.66;;;8.18
79089;BMP280;68489;50.286;9.452;2023-11-21T04:31:52;96687.38;;;8.25
79089;BMP280;68489;50.286;9.452;2023-11-21T04:34:17;96698.06;;;8.22
79089;BMP280;68489;50.286;9.452;2023-11-21T04:36:42;96697.22;;;8.25
79089;BMP280;68489;50.286;9.452;2023-11-21T04:39:08;96698.50;;;8.20
79089;BMP280;68489;50.286;9.452;2023-11-21T04:41:34;96701.56;;;8.19
79089;BMP280;68489;50.286;9.452;2023-11-21T04:43:59;96704.22;;;8.19
79089;BMP280;68489;50.286;9.452;2023-11-21T04:46:26;96703.06;;;8.20
79089;BMP280;68489;50.286;9.452;2023-11-21T04:48:51;96699.97;;;8.21
79089;BMP280;68489;50.286;9.452;2023-11-21T04:51:17;96702.75;;;8.18
79089;BMP280;68489;50.286;9.452;2023-11-21T04:53:42;96699.50;;;8.13
79089;BMP280;68489;50.286;9.452;2023-11-21T04:56:08;96711.25;;;8.12
79089;BMP280;68489;50.286;9.452;2023-11-21T04:58:33;96710.19;;;8.10
79089;BMP280;68489;50.286;9.452;2023-11-21T05:00:58;96707.22;;;8.08
79089;BMP280;68489;50.286;9.452;2023-11-21T05:03:24;96712.97;;;8.06
79089;BMP280;68489;50.286;9.452;2023-11-21T05:05:49;96705.59;;;8.01
79089;BMP280;68489;50.286;9.452;2023-11-21T05:08:14;96715.00;;;8.02
79089;BMP280;68489;50.286;9.452;2023-11-21T05:10:40;96718.50;;;7.99
79089;BMP280;68489;50.286;9.452;2023-11-21T05:13:05;96719.69;;;7.98
79089;BMP280;68489;50.286;9.452;2023-11-21T05:15:35;96718.81;;;8.01
79089;BMP280;68489;50.286;9.452;2023-11-21T05:18:00;96719.69;;;7.98
79089;BMP280;68489;50.286;9.452;2023-11-21T05:20:26;96721.34;;;8.05
79089;BMP280;68489;50.286;9.452;2023-11-21T05:22:51;96728.69;;;8.01
79089;BMP280;68489;50.286;9.452;2023-11-21T05:25:17;96733.53;;;8.02
79089;BMP280;68489;50.286;9.452;2023-11-21T05:27:44;96740.91;;;8.07
79089;BMP280;68489;50.286;9.452;2023-11-21T05:30:10;96736.81;;;8.06
79089;BMP280;68489;50.286;9.452;2023-11-21T05:32:37;96741.06;;;8.04
79089;BMP280;68489;50.286;9.452;2023-11-21T05:35:03;96739.25;;;8.01
79089;BMP280;68489;50.286;9.452;2023-11-21T05:37:29;96749.84;;;8.01
79089;BMP280;68489;50.286;9.452;2023-11-21T05:39:55;96749.41;;;8.02
79089;BMP280;68489;50.286;9.452;2023-11-21T05:42:24;96747.50;;;8.03
79089;BMP280;68489;50.286;9.452;2023-11-21T05:44:50;96752.81;;;8.03
79089;BMP280;68489;50.286;9.452;2023-11-21T05:47:15;96752.06;;;8.02
79089;BMP280;68489;50.286;9.452;2023-11-21T05:49:40;96760.00;;;8.02
79089;BMP280;68489;50.286;9.452;2023-11-21T05:52:06;96764.00;;;8.07
79089;BMP280;68489;50.286;9.452;2023-11-21T05:54:32;96772.41;;;8.05
79089;BMP280;68489;50.286;9.452;2023-11-21T05:56:57;96761.06;;;8.05
79089;BMP280;68489;50.286;9.452;2023-11-21T05:59:23;96767.22;;;8.02
79089;BMP280;68489;50.286;9.452;2023-11-21T06:01:48;96772.84;;;8.04
79089;BMP280;68489;50.286;9.452;2023-11-21T06:04:13;96773.97;;;8.03
79089;BMP280;68489;50.286;9.452;2023-11-21T06:06:39;96780.94;;;8.09
79089;BMP280;68489;50.286;9.452;2023-11-21T06:09:04;96772.69;;;8.07
79089;BMP280;68489;50.286;9.452;2023-11-21T06:11:31;96774.75;;;8.03
79089;BMP280;68489;50.286;9.452;2023-11-21T06:13:57;96780.13;;;8.00
79089;BMP280;68489;50.286;9.452;2023-11-21T06:16:22;96786.19;;;8.00
79089;BMP280;68489;50.286;9.452;2023-11-21T06:18:47;96793.34;;;8.00
79089;BMP280;68489;50.286;9.452;2023-11-21T06:21:13;96803.09;;;8.03
79089;BMP280;68489;50.286;9.452;2023-11-21T06:23:39;96802.38;;;8.02
79089;BMP280;68489;50.286;9.452;2023-11-21T06:26:05;96808.84;;;8.01
79089;BMP280;68489;50.286;9.452;2023-11-21T06:28:31;96813.19;;;7.95
79089;BMP280;68489;50.286;9.452;2023-11-21T06:30:56;96816.88;;;7.98
79089;BMP280;68489;50.286;9.452;2023-11-21T06:33:23;96823.34;;;7.97
79089;BMP280;68489;50.286;9.452;2023-11-21T06:35:48;96821.56;;;7.94
79089;BMP280;68489;50.286;9.452;2023-11-21T06:38:14;96828.44;;;7.91
79089;BMP280;68489;50.286;9.452;2023-11-21T06:40:39;96823.59;;;7.89
79089;BMP280;68489;50.286;9.452;2023-11-21T06:43:06;96838.06;;;7.85
79089;BMP280;68489;50.286;9.452;2023-11-21T06:45:32;96837.03;;;7.82
79089;BMP280;68489;50.286;9.452;2023-11-21T06:47:59;96843.38;;;7.85
79089;BMP280;68489;50.286;9.452;2023-11-21T06:50:24;96846.00;;;7.85
79089;BMP280;68489;50.286;9.452;2023-11-21T06:52:49;96852.47;;;7.84
79089;BMP280;68489;50.286;9.452;2023-11-21T06:55:15;96852.28;;;7.78
79089;BMP280;68489;50.286;9.452;2023-11-21T06:57:41;96851.44;;;7.81
79089;BMP280;68489;50.286;9.452;2023-11-21T07:00:07;96852.69;;;7.77
79089;BMP280;68489;50.286;9.452;2023-11-21T07:02:34;96857.56;;;7.78
79089;BMP280;68489;50.286;9.452;2023-11-21T07:04:59;96859.16;;;7.76
79089;BMP280;68489;50.286;9.452;2023-11-21T07:07:25;96858.41;;;7.75
79089;BMP280;68489;50.286;9.452;2023-11-21T07:09:50;96861.91;;;7.72
79089;BMP280;68489;50.286;9.452;2023-11-21T07:12:17;96868.25;;;7.75
79089;BMP280;68489;50.286;9.452;2023-11-21T07:14:43;96871.31;;;7.73
79089;BMP280;68489;50.286;9.452;2023-11-21T07:17:10;96873.97;;;7.73
79089;BMP280;68489;50.286;9.452;2023-11-21T07:19:37;96873.88;;;7.77
79089;BMP280;68489;50.286;9.452;2023-11-21T07:22:03;96876.91;;;7.75
79089;BMP280;68489;50.286;9.452;2023-11-21T07:24:28;96883.72;;;7.76
79089;BMP280;68489;50.286;9.452;2023-11-21T07:26:53;96886.25;;;7.80
79089;BMP280;68489;50.286;9.452;2023-11-21T07:29:22;96887.75;;;7.81
79089;BMP280;68489;50.286;9.452;2023-11-21T07:31:48;96888.50;;;7.81
79089;BMP280;68489;50.286;9.452;2023-11-21T07:34:13;96895.25;;;7.82
79089;BMP280;68489;50.286;9.452;2023-11-21T07:36:38;96888.78;;;7.83
79089;BMP280;68489;50.286;9.452;2023-11-21T07:39:04;96897.56;;;7.80
79089;BMP280;68489;50.286;9.452;2023-11-21T07:41:29;96897.03;;;7.85
79089;BMP280;68489;50.286;9.452;2023-11-21T07:43:55;96900.41;;;7.86
79089;BMP280;68489;50.286;9.452;2023-11-21T07:46:21;96902.56;;;7.91
79089;BMP280;68489;50.286;9.452;2023-11-21T07:48:47;96909.22;;;7.96
79089;BMP280;68489;50.286;9.452;2023-11-21T07:51:12;96909.22;;;7.96
79089;BMP280;68489;50.286;9.452;2023-11-21T07:53:38;96906.91;;;7.98
79089;BMP280;68489;50.286;9.452;2023-11-21T07:56:08;96914.72;;;8.01
79089;BMP280;68489;50.286;9.452;2023-11-21T07:58:36;96913.88;;;8.04
79089;BMP280;68489;50.286;9.452;2023-11-21T08:01:02;96914.06;;;8.10
79089;BMP280;68489;50.286;9.452;2023-11-21T08:03:28;96915.56;;;8.11
79089;BMP280;68489;50.286;9.452;2023-11-21T08:05:57;96916.06;;;8.19
79089;BMP280;68489;50.286;9.452;2023-11-21T08:08:22;96920.44;;;8.25
79089;BMP280;68489;50.286;9.452;2023-11-21T08:10:48;96920.72;;;8.27
79089;BMP280;68489;50.286;9.452;2023-11-21T08:13:24;96915.41;;;8.27
79089;BMP280;68489;50.286;9.452;2023-11-21T08:15:50;96914.47;;;8.34
79089;BMP280;68489;50.286;9.452;2023-11-21T08:18:15;96915.81;;;8.38
79089;BMP280;68489;50.286;9.452;2023-11-21T08:20:42;96920.25;;;8.41
79089;BMP280;68489;50.286;9.452;2023-11-21T08:23:07;96927.91;;;8.39
79089;BMP280;68489;50.286;9.452;2023-11-21T08:25:32;96919.13;;;8.43
79089;BMP280;68489;50.286;9.452;2023-11-21T08:27:59;96924.53;;;8.39
79089;BMP280;68489;50.286;9.452;2023-11-21T08:30:25;96923.56;;;8.33
79089;BMP280;68489;50.286;9.452;2023-11-21T08:32:50;96929.19;;;8.35
79089;BMP280;68489;50.286;9.452;2023-11-21T08:35:17;96930.56;;;8.39
79089;BMP280;68489;50.286;9.452;2023-11-21T08:37:42;96933.50;;;8.41
79089;BMP280;68489;50.286;9.452;2023-11-21T08:40:08;96937.16;;;8.35
79089;BMP280;68489;50.286;9.452;2023-11-21T08:42:37;96940.66;;;8.32
79089;BMP280;68489;50.286;9.452;2023-11-21T08:45:03;96941.63;;;8.25
79089;BMP280;68489;50.286;9.452;2023-11-21T08:47:29;96939.91;;;8.19
79089;BMP280;68489;50.286;9.452;2023-11-21T08:49:55;96941.72;;;8.09
79089;BMP280;68489;50.286;9.452;2023-11-21T08:52:20;96949.56;;;8.00
79089;BMP280;68489;50.286;9.452;2023-11-21T08:54:48;96958.13;;;7.91
79089;BMP280;68489;50.286;9.452;2023-11-21T08:57:13;96964.06;;;7.82
79089;BMP280;68489;50.286;9.452;2023-11-21T08:59:38;96972.13;;;7.79
79089;BMP280;68489;50.286;9.452;2023-11-21T09:02:04;96981.53;;;7.80
79089;BMP280;68489;50.286;9.452;2023-11-21T09:04:29;96989.56;;;7.76
79089;BMP280;68489;50.286;9.452;2023-11-21T09:06:54;96992.63;;;7.75
79089;BMP280;68489;50.286;9.452;2023-11-21T09:09:19;96988.50;;;7.74
79089;BMP280;68489;50.286;9.452;2023-11-21T09:11:45;96999.09;;;7.74
79089;BMP280;68489;50.286;9.452;2023-11-21T09:14:11;97004.38;;;7.74
79089;BMP280;68489;50.286;9.452;2023-11-21T09:16:38;97003.44;;;7.67
79089;BMP280;68489;50.286;9.452;2023-11-21T09:19:04;97016.13;;;7.73
79089;BMP280;68489;50.286;9.452;2023-11-21T09:21:30;97010.84;;;7.73
79089;BMP280;68489;50.286;9.452;2023-11-21T09:23:56;97012.97;;;7.78
79089;BMP280;68489;50.286;9.452;2023-11-21T09:26:21;97015.94;;;7.80
79089;BMP280;68489;50.286;9.452;2023-11-21T09:28:46;97020.41;;;7.83
79089;BMP280;68489;50.286;9.452;2023-11-21T09:31:13;97017.94;;;7.88
79089;BMP280;68489;50.286;9.452;2023-11-21T09:33:41;97017.66;;;7.99
79089;BMP280;68489;50.286;9.452;2023-11-21T09:36:11;97018.19;;;8.07
79089;BMP280;68489;50.286;9.452;2023-11-21T09:38:38;97026.66;;;8.27
79089;BMP280;68489;50.286;9.452;2023-11-21T09:41:05;97022.44;;;8.43
79089;BMP280;68489;50.286;9.452;2023-11-21T09:43:32;97027.16;;;8.60
79089;BMP280;68489;50.286;9.452;2023-11-21T09:46:03;97024.28;;;8.80
79089;BMP280;68489;50.286;9.452;2023-11-21T09:48:32;97033.13;;;8.99
79089;BMP280;68489;50.286;9.452;2023-11-21T09:50:59;97033.50;;;9.10
79089;BMP280;68489;50.286;9.452;2023-11-21T09:53:26;97034.84;;;9.06
79089;BMP280;68489;50.286;9.452;2023-11-21T09:55:55;97029.59;;;9.15
79089;BMP280;68489;50.286;9.452;2023-11-21T09:58:21;97037.31;;;9.22
79089;BMP280;68489;50.286;9.452;2023-11-21T10:00:49;97030.69;;;9.27
79089;BMP280;68489;50.286;9.452;2023-11-21T10:03:15;97030.09;;;9.23
79089;BMP280;68489;50.286;9.452;2023-11-21T10:05:43;97033.53;;;9.32
79089;BMP280;68489;50.286;9.452;2023-11-21T10:08:11;97034.53;;;9.26
79089;BMP280;68489;50.286;9.452;2023-11-21T10:10:37;97038.06;;;9.23
79089;BMP280;68489;50.286;9.452;2023-11-21T10:13:05;97036.66;;;9.18
79089;BMP280;68489;50.286;9.452;2023-11-21T10:15:34;97044.72;;;9.05
79089;BMP280;68489;50.286;9.452;2023-11-21T10:18:02;97036.25;;;8.98
79089;BMP280;68489;50.286;9.452;2023-11-21T10:20:28;97040.16;;;8.93
79089;BMP280;68489;50.286;9.452;2023-11-21T10:22:54;97036.25;;;8.85
79089;BMP280;68489;50.286;9.452;2023-11-21T10:25:21;97037.53;;;8.80
79089;BMP280;68489;50.286;9.452;2023-11-21T10:27:49;97047.38;;;8.80
79089;BMP280;68489;50.286;9.452;2023-11-21T10:30:17;97041.00;;;8.90
79089;BMP280;68489;50.286;9.452;2023-11-21T10:32:43;97048.50;;;9.04
79089;BMP280;68489;50.286;9.452;2023-11-21T10:35:08;97041.78;;;9.12
79089;BMP280;68489;50.286;9.452;2023-11-21T10:37:37;97048.78;;;9.19
79089;BMP280;68489;50.286;9.452;2023-11-21T10:40:08;97053.19;;;9.35
79089;BMP280;68489;50.286;9.452;2023-11-21T10:42:38;97053.72;;;9.52
79089;BMP280;68489;50.286;9.452;2023-11-21T10:45:04;97058.91;;;9.55
79089;BMP280;68489;50.286;9.452;2023-11-21T10:47:38;97055.94;;;9.75
79089;BMP280;68489;50.286;9.452;2023-11-21T10:50:04;97065.88;;;9.84
79089;BMP280;68489;50.286;9.452;2023-11-21T10:52:30;97057.41;;;9.98
79089;BMP280;68489;50.286;9.452;2023-11-21T10:54:55;97062.31;;;10.09
79089;BMP280;68489;50.286;9.452;2023-11-21T10:57:22;97062.34;;;10.18
79089;BMP280;68489;50.286;9.452;2023-11-21T10:59:49;97062.97;;;10.22
79089;BMP280;68489;50.286;9.452;2023-11-21T11:02:24;97067.84;;;10.24
79089;BMP280;68489;50.286;9.452;2023-11-21T11:04:54;97062.41;;;10.27
79089;BMP280;68489;50.286;9.452;2023-11-21T11:07:21;97070.22;;;10.22
79089;BMP280;68489;50.286;9.452;2023-11-21T11:09:49;97064.28;;;10.27
79089;BMP280;68489;50.286;9.452;2023-11-21T11:12:14;97071.13;;;10.37
79089;BMP280;68489;50.286;9.452;2023-11-21T11:14:42;97071.19;;;10.46
79089;BMP280;68489;50.286;9.452;2023-11-21T11:17:10;97073.53;;;10.53
79089;BMP280;68489;50.286;9.452;2023-11-21T11:19:36;97079.75;;;10.50
79089;BMP280;68489;50.286;9.452;2023-11-21T11:25:03;97072.50;;;10.51
79089;BMP280;68489;50.286;9.452;2023-11-21T11:30:23;97075.16;;;10.42
79089;BMP280;68489;50.286;9.452;2023-11-21T11:33:06;97075.13;;;10.32
79089;BMP280;68489;50.286;9.452;2023-11-21T11:38:27;97081.22;;;10.11
79089;BMP280;68489;50.286;9.452;2023-11-21T11:40:56;97078.13;;;10.12
79089;BMP280;68489;50.286;9.452;2023-11-21T11:43:25;97074.63;;;9.94
79089;BMP280;68489;50.286;9.452;2023-11-21T11:45:50;97078.44;;;9.93
79089;BMP280;68489;50.286;9.452;2023-11-21T11:48:18;97074.78;;;9.90
79089;BMP280;68489;50.286;9.452;2023-11-21T11:51:11;97077.09;;;9.88
79089;BMP280;68489;50.286;9.452;2023-11-21T11:53:40;97083.19;;;9.88
79089;BMP280;68489;50.286;9.452;2023-11-21T11:56:24;97078.44;;;9.93
79089;BMP280;68489;50.286;9.452;2023-11-21T11:58:54;97077.09;;;9.88
79089;BMP280;68489;50.286;9.452;2023-11-21T12:01:21;97081.75;;;9.97
79089;BMP280;68489;50.286;9.452;2023-11-21T12:06:43;97089.41;;;9.95
79089;BMP280;68489;50.286;9.452;2023-11-21T12:09:18;97095.28;;;9.90
79089;BMP280;68489;50.286;9.452;2023-11-21T12:11:45;97092.47;;;9.93
79089;BMP280;68489;50.286;9.452;2023-11-21T12:14:13;97103.09;;;9.93
79089;BMP280;68489;50.286;9.452;2023-11-21T12:16:38;97090.84;;;9.86
79089;BMP280;68489;50.286;9.452;2023-11-21T12:19:04;97101.28;;;9.81
79089;BMP280;68489;50.286;9.452;2023-11-21T12:21:30;97100.88;;;9.92
79089;BMP280;68489;50.286;9.452;2023-11-21T12:23:57;97097.50;;;9.91
79089;BMP280;68489;50.286;9.452;2023-11-21T12:26:24;97106.94;;;9.92
79089;BMP280;68489;50.286;9.452;2023-11-21T12:28:55;97105.91;;;9.90
79089;BMP280;68489;50.286;9.452;2023-11-21T12:31:23;97101.56;;;9.83
79089;BMP280;68489;50.286;9.452;2023-11-21T12:33:49;97110.72;;;9.82
79089;BMP280;68489;50.286;9.452;2023-11-21T12:36:15;97110.28;;;9.83
79089;BMP280;68489;50.286;9.452;2023-11-21T12:38:41;97110.84;;;9.78
79089;BMP280;68489;50.286;9.452;2023-11-21T12:41:07;97119.22;;;9.77
79089;BMP280;68489;50.286;9.452;2023-11-21T12:43:33;97120.06;;;9.74
79089;BMP280;68489;50.286;9.452;2023-11-21T12:46:07;97120.56;;;9.72
79089;BMP280;68489;50.286;9.452;2023-11-21T12:48:37;97125.53;;;9.70
79089;BMP280;68489;50.286;9.452;2023-11-21T12:51:05;97124.16;;;9.66
79089;BMP280;68489;50.286;9.452;2023-11-21T12:53:32;97127.25;;;9.64
79089;BMP280;68489;50.286;9.452;2023-11-21T12:56:02;97130.97;;;9.67
79089;BMP280;68489;50.286;9.452;2023-11-21T12:58:28;97131.44;;;9.74
79089;BMP280;68489;50.286;9.452;2023-11-21T13:00:55;97133.34;;;9.74
79089;BMP280;68489;50.286;9.452;2023-11-21T13:03:22;97126.28;;;9.71
79089;BMP280;68489;50.286;9.452;2023-11-21T13:05:51;97117.56;;;9.70
79089;BMP280;68489;50.286;9.452;2023-11-21T13:08:19;97132.31;;;9.71
79089;BMP280;68489;50.286;9.452;2023-11-21T13:10:49;97129.38;;;9.69
79089;BMP280;68489;50.286;9.452;2023-11-21T13:13:15;97133.53;;;9.57
79089;BMP280;68489;50.286;9.452;2023-11-21T13:15:53;97139.81;;;9.63
79089;BMP280;68489;50.286;9.452;2023-11-21T13:18:22;97135.44;;;9.57
79089;BMP280;68489;50.286;9.452;2023-11-21T13:20:48;97141.75;;;9.50
79089;BMP280;68489;50.286;9.452;2023-11-21T13:23:14;97145.75;;;9.55
79089;BMP280;68489;50.286;9.452;2023-11-21T13:25:42;97142.06;;;9.52
79089;BMP280;68489;50.286;9.452;2023-11-21T13:28:08;97149.28;;;9.52
79089;BMP280;68489;50.286;9.452;2023-11-21T13:30:35;97142.06;;;9.52
79089;BMP280;68489;50.286;9.452;2023-11-21T13:33:01;97155.44;;;9.49
79089;BMP280;68489;50.286;9.452;2023-11-21T13:35:28;97158.34;;;9.42
79089;BMP280;68489;50.286;9.452;2023-11-21T13:38:04;97150.28;;;9.45
79089;BMP280;68489;50.286;9.452;2023-11-21T13:40:31;97152.47;;;9.47
79089;BMP280;68489;50.286;9.452;2023-11-21T13:42:59;97153.97;;;9.48
79089;BMP280;68489;50.286;9.452;2023-11-21T13:45:27;97151.63;;;9.50
79089;BMP280;68489;50.286;9.452;2023-11-21T13:47:53;97160.66;;;9.39
79089;BMP280;68489;50.286;9.452;2023-11-21T13:50:23;97154.94;;;9.41
79089;BMP280;68489;50.286;9.452;2023-11-21T13:52:49;97145.09;;;9.29
79089;BMP280;68489;50.286;9.452;2023-11-21T13:55:19;97159.22;;;9.26
79089;BMP280;68489;50.286;9.452;2023-11-21T13:57:45;97169.63;;;9.20
79089;BMP280;68489;50.286;9.452;2023-11-21T14:00:14;97173.03;;;9.21
79089;BMP280;68489;50.286;9.452;2023-11-21T14:02:58;97182.25;;;9.16
79089;BMP280;68489;50.286;9.452;2023-11-21T14:05:26;97179.31;;;9.14
79089;BMP280;68489;50.286;9.452;2023-11-21T14:07:54;97183.88;;;9.13
79089;BMP280;68489;50.286;9.452;2023-11-21T14:10:21;97180.47;;;9.13
79089;BMP280;68489;50.286;9.452;2023-11-21T14:12:49;97184.69;;;9.10
79089;BMP280;68489;50.286;9.452;2023-11-21T14:15:15;97188.22;;;9.07
79089;BMP280;68489;50.286;9.452;2023-11-21T14:17:44;97189.69;;;9.08
79089;BMP280;68489;50.286;9.452;2023-11-21T14:20:09;97183.75;;;9.04
79089;BMP280;68489;50.286;9.452;2023-11-21T14:22:41;97190.97;;;9.04
79089;BMP280;68489;50.286;9.452;2023-11-21T14:25:07;97186.09;;;9.02
79089;BMP280;68489;50.286;9.452;2023-11-21T14:27:32;97180.47;;;9.00
79089;BMP280;68489;50.286;9.452;2023-11-21T14:29:58;97175.72;;;8.95